sensor_id;sensor_type;location;lat;lon;timestamp;P1;P2;P0
74419;PMS5003;62855;50.718;-2.460;2023-04-08T00:02:05;5.45;4.89;
74419;PMS5003;62855;50.718;-2.460;2023-04-08T00:05:06;5.45;4.89;
74419;PMS5003;62855;50.718;-2.460;2023-04-08T00:08:06;5.45;4.89;
74419;PMS5003;62855;50.718;-2.460;2023-04-08T00:11:05;4.54;4.89;
74419;PMS5003;62855;50.718;-2.460;2023-04-08T00:14:05;4.54;3.91;
74419;PMS5003;62855;50.718;-2.460;2023-04-08T00:17:06;4.54;3.91;
74419;PMS5003;62855;50.718;-2.460;2023-04-08T00:20:05;5.45;3.91;
74419;PMS5003;62855;50.718;-2.460;2023-04-08T00:23:05;5.45;3.91;
74419;PMS5003;62855;50.718;-2.460;2023-04-08T00:26:05;5.45;3.91;
74419;PMS5003;62855;50.718;-2.460;2023-04-08T00:29:05;6.35;4.89;
74419;PMS5003;62855;50.718;-2.460;2023-04-08T00:32:05;6.35;5.87;
74419;PMS5003;62855;50.718;-2.460;2023-04-08T00:35:06;5.45;3.91;
74419;PMS5003;62855;50.718;-2.460;2023-04-08T00:38:05;6.35;4.89;
74419;PMS5003;62855;50.718;-2.460;2023-04-08T00:41:06;6.35;5.87;
74419;PMS5003;62855;50.718;-2.460;2023-04-08T00:44:06;7.26;5.87;
74419;PMS5003;62855;50.718;-2.460;2023-04-08T00:47:05;4.54;4.89;
74419;PMS5003;62855;50.718;-2.460;2023-04-08T00:50:06;6.35;5.87;
74419;PMS5003;62855;50.718;-2.460;2023-04-08T00:53:05;5.45;5.87;
74419;PMS5003;62855;50.718;-2.460;2023-04-08T00:56:05;5.45;5.87;
74419;PMS5003;62855;50.718;-2.460;2023-04-08T00:59:05;4.54;4.89;
74419;PMS5003;62855;50.718;-2.460;2023-04-08T01:02:09;6.35;6.84;
74419;PMS5003;62855;50.718;-2.460;2023-04-08T01:05:06;5.45;5.87;
74419;PMS5003;62855;50.718;-2.460;2023-04-08T01:08:06;6.35;6.84;
74419;PMS5003;62855;50.718;-2.460;2023-04-08T01:11:06;6.35;6.84;
74419;PMS5003;62855;50.718;-2.460;2023-04-08T01:14:06;5.45;5.87;
74419;PMS5003;62855;50.718;-2.460;2023-04-08T01:17:06;5.45;5.87;
74419;PMS5003;62855;50.718;-2.460;2023-04-08T01:20:06;6.35;6.84;
74419;PMS5003;62855;50.718;-2.460;2023-04-08T01:23:07;6.35;6.84;
74419;PMS5003;62855;50.718;-2.460;2023-04-08T01:26:05;5.45;5.87;
74419;PMS5003;62855;50.718;-2.460;2023-04-08T01:29:05;6.35;6.84;
74419;PMS5003;62855;50.718;-2.460;2023-04-08T01:32:06;6.35;6.84;
74419;PMS5003;62855;50.718;-2.460;2023-04-08T01:35:06;5.45;5.87;
74419;PMS5003;62855;50.718;-2.460;2023-04-08T01:38:05;5.45;5.87;
74419;PMS5003;62855;50.718;-2.460;2023-04-08T01:41:06;6.35;5.87;
74419;PMS5003;62855;50.718;-2.460;2023-04-08T01:44:05;7.26;6.84;
74419;PMS5003;62855;50.718;-2.460;2023-04-08T01:47:06;7.26;6.84;
74419;PMS5003;62855;50.718;-2.460;2023-04-08T01:50:06;8.17;7.82;
74419;PMS5003;62855;50.718;-2.460;2023-04-08T01:53:06;7.26;6.84;
74419;PMS5003;62855;50.718;-2.460;2023-04-08T01:56:07;7.26;6.84;
74419;PMS5003;62855;50.718;-2.460;2023-04-08T01:59:08;7.26;6.84;
74419;PMS5003;62855;50.718;-2.460;2023-04-08T02:02:06;7.26;6.84;
74419;PMS5003;62855;50.718;-2.460;2023-04-08T02:05:06;7.26;6.84;
74419;PMS5003;62855;50.718;-2.460;2023-04-08T02:08:06;7.26;6.84;
74419;PMS5003;62855;50.718;-2.460;2023-04-08T02:11:06;6.35;6.84;
74419;PMS5003;62855;50.718;-2.460;2023-04-08T02:14:06;6.35;5.87;
74419;PMS5003;62855;50.718;-2.460;2023-04-08T02:17:07;5.45;5.87;
74419;PMS5003;62855;50.718;-2.460;2023-04-08T02:20:06;4.54;4.89;
74419;PMS5003;62855;50.718;-2.460;2023-04-08T02:23:08;4.54;4.89;
74419;PMS5003;62855;50.718;-2.460;2023-04-08T02:26:06;4.54;4.89;
74419;PMS5003;62855;50.718;-2.460;2023-04-08T02:29:06;4.54;4.89;
74419;PMS5003;62855;50.718;-2.460;2023-04-08T02:32:05;4.54;4.89;
74419;PMS5003;62855;50.718;-2.460;2023-04-08T02:35:06;4.54;4.89;
74419;PMS5003;62855;50.718;-2.460;2023-04-08T02:38:06;4.54;4.89;
74419;PMS5003;62855;50.718;-2.460;2023-04-08T02:41:06;4.54;4.89;
74419;PMS5003;62855;50.718;-2.460;2023-04-08T02:44:06;4.54;4.89;
74419;PMS5003;62855;50.718;-2.460;2023-04-08T02:47:05;5.45;5.87;
74419;PMS5003;62855;50.718;-2.460;2023-04-08T02:50:06;5.45;5.87;
74419;PMS5003;62855;50.718;-2.460;2023-04-08T02:53:06;5.45;5.87;
74419;PMS5003;62855;50.718;-2.460;2023-04-08T02:56:08;6.35;5.87;
74419;PMS5003;62855;50.718;-2.460;2023-04-08T02:59:05;6.35;5.87;
74419;PMS5003;62855;50.718;-2.460;2023-04-08T03:02:06;6.35;6.84;
74419;PMS5003;62855;50.718;-2.460;2023-04-08T03:05:06;6.35;5.87;
74419;PMS5003;62855;50.718;-2.460;2023-04-08T03:08:06;6.35;5.87;
74419;PMS5003;62855;50.718;-2.460;2023-04-08T03:11:06;5.45;5.87;
74419;PMS5003;62855;50.718;-2.460;2023-04-08T03:14:06;6.35;5.87;
74419;PMS5003;62855;50.718;-2.460;2023-04-08T03:17:06;5.45;5.87;
74419;PMS5003;62855;50.718;-2.460;2023-04-08T03:20:06;5.45;5.87;
74419;PMS5003;62855;50.718;-2.460;2023-04-08T03:23:06;5.45;5.87;
74419;PMS5003;62855;50.718;-2.460;2023-04-08T03:26:06;4.54;4.89;
74419;PMS5003;62855;50.718;-2.460;2023-04-08T03:29:06;4.54;4.89;
74419;PMS5003;62855;50.718;-2.460;2023-04-08T03:32:06;4.54;4.89;
74419;PMS5003;62855;50.718;-2.460;2023-04-08T03:35:06;5.45;5.87;
74419;PMS5003;62855;50.718;-2.460;2023-04-08T03:38:06;4.54;4.89;
74419;PMS5003;62855;50.718;-2.460;2023-04-08T03:41:06;4.54;4.89;
74419;PMS5003;62855;50.718;-2.460;2023-04-08T03:44:06;4.54;4.89;
74419;PMS5003;62855;50.718;-2.460;2023-04-08T03:47:06;4.54;4.89;
74419;PMS5003;62855;50.718;-2.460;2023-04-08T03:50:06;4.54;4.89;
74419;PMS5003;62855;50.718;-2.460;2023-04-08T03:53:06;3.63;3.91;
74419;PMS5003;62855;50.718;-2.460;2023-04-08T03:56:06;4.54;4.89;
74419;PMS5003;62855;50.718;-2.460;2023-04-08T03:59:06;5.45;4.89;
74419;PMS5003;62855;50.718;-2.460;2023-04-08T04:02:06;5.45;4.89;
74419;PMS5003;62855;50.718;-2.460;2023-04-08T04:05:06;5.45;4.89;
74419;PMS5003;62855;50.718;-2.460;2023-04-08T04:08:05;5.45;5.87;
74419;PMS5003;62855;50.718;-2.460;2023-04-08T04:11:05;6.35;5.87;
74419;PMS5003;62855;50.718;-2.460;2023-04-08T04:14:05;6.35;6.84;
74419;PMS5003;62855;50.718;-2.460;2023-04-08T04:17:05;6.35;6.84;
74419;PMS5003;62855;50.718;-2.460;2023-04-08T04:20:06;6.35;5.87;
74419;PMS5003;62855;50.718;-2.460;2023-04-08T04:23:05;5.45;4.89;
74419;PMS5003;62855;50.718;-2.460;2023-04-08T04:26:07;6.35;5.87;
74419;PMS5003;62855;50.718;-2.460;2023-04-08T04:29:06;4.54;3.91;
74419;PMS5003;62855;50.718;-2.460;2023-04-08T04:32:06;5.45;4.89;
74419;PMS5003;62855;50.718;-2.460;2023-04-08T04:35:06;6.35;5.87;
74419;PMS5003;62855;50.718;-2.460;2023-04-08T04:38:05;4.54;3.91;
74419;PMS5003;62855;50.718;-2.460;2023-04-08T04:41:05;3.63;3.91;
74419;PMS5003;62855;50.718;-2.460;2023-04-08T04:44:05;3.63;3.91;
74419;PMS5003;62855;50.718;-2.460;2023-04-08T04:47:05;4.54;3.91;
74419;PMS5003;62855;50.718;-2.460;2023-04-08T04:50:06;5.45;4.89;
74419;PMS5003;62855;50.718;-2.460;2023-04-08T04:53:05;6.35;4.89;
74419;PMS5003;62855;50.718;-2.460;2023-04-08T04:56:06;6.35;5.87;
74419;PMS5003;62855;50.718;-2.460;2023-04-08T04:59:05;6.35;6.84;
74419;PMS5003;62855;50.718;-2.460;2023-04-08T05:02:06;7.26;5.87;
74419;PMS5003;62855;50.718;-2.460;2023-04-08T05:05:06;6.35;4.89;
74419;PMS5003;62855;50.718;-2.460;2023-04-08T05:08:06;6.35;4.89;
74419;PMS5003;62855;50.718;-2.460;2023-04-08T05:11:08;7.26;5.87;
74419;PMS5003;62855;50.718;-2.460;2023-04-08T05:14:06;7.26;5.87;
74419;PMS5003;62855;50.718;-2.460;2023-04-08T05:17:06;6.35;5.87;
74419;PMS5003;62855;50.718;-2.460;2023-04-08T05:20:06;6.35;5.87;
74419;PMS5003;62855;50.718;-2.460;2023-04-08T05:23:06;5.45;4.89;
74419;PMS5003;62855;50.718;-2.460;2023-04-08T05:26:06;5.45;4.89;
74419;PMS5003;62855;50.718;-2.460;2023-04-08T05:29:05;5.45;4.89;
74419;PMS5003;62855;50.718;-2.460;2023-04-08T05:32:06;4.54;4.89;
74419;PMS5003;62855;50.718;-2.460;2023-04-08T05:35:06;5.45;5.87;
74419;PMS5003;62855;50.718;-2.460;2023-04-08T05:38:06;4.54;4.89;
74419;PMS5003;62855;50.718;-2.460;2023-04-08T05:41:06;4.54;4.89;
74419;PMS5003;62855;50.718;-2.460;2023-04-08T05:44:06;4.54;4.89;
74419;PMS5003;62855;50.718;-2.460;2023-04-08T05:47:06;4.54;4.89;
74419;PMS5003;62855;50.718;-2.460;2023-04-08T05:50:06;4.54;4.89;
74419;PMS5003;62855;50.718;-2.460;2023-04-08T05:53:06;5.45;5.87;
74419;PMS5003;62855;50.718;-2.460;2023-04-08T05:56:06;4.54;4.89;
74419;PMS5003;62855;50.718;-2.460;2023-04-08T05:59:06;4.54;4.89;
74419;PMS5003;62855;50.718;-2.460;2023-04-08T06:02:06;4.54;4.89;
74419;PMS5003;62855;50.718;-2.460;2023-04-08T06:05:06;4.54;4.89;
74419;PMS5003;62855;50.718;-2.460;2023-04-08T06:08:06;4.54;4.89;
74419;PMS5003;62855;50.718;-2.460;2023-04-08T06:11:06;4.54;4.89;
74419;PMS5003;62855;50.718;-2.460;2023-04-08T06:14:06;4.54;4.89;
74419;PMS5003;62855;50.718;-2.460;2023-04-08T06:17:05;5.45;5.87;
74419;PMS5003;62855;50.718;-2.460;2023-04-08T06:20:05;5.45;4.89;
74419;PMS5003;62855;50.718;-2.460;2023-04-08T06:23:06;4.54;4.89;
74419;PMS5003;62855;50.718;-2.460;2023-04-08T06:26:06;5.45;4.89;
74419;PMS5003;62855;50.718;-2.460;2023-04-08T06:29:05;6.35;5.87;
74419;PMS5003;62855;50.718;-2.460;2023-04-08T06:32:06;6.35;5.87;
74419;PMS5003;62855;50.718;-2.460;2023-04-08T06:35:06;6.35;5.87;
74419;PMS5003;62855;50.718;-2.460;2023-04-08T06:38:06;6.35;5.87;
74419;PMS5003;62855;50.718;-2.460;2023-04-08T06:41:06;7.26;6.84;
74419;PMS5003;62855;50.718;-2.460;2023-04-08T06:44:06;8.17;7.82;
74419;PMS5003;62855;50.718;-2.460;2023-04-08T06:47:05;7.26;6.84;
74419;PMS5003;62855;50.718;-2.460;2023-04-08T06:50:06;8.17;7.82;
74419;PMS5003;62855;50.718;-2.460;2023-04-08T06:53:05;8.17;7.82;
74419;PMS5003;62855;50.718;-2.460;2023-04-08T06:56:05;8.17;7.82;
74419;PMS5003;62855;50.718;-2.460;2023-04-08T06:59:06;8.17;8.80;
74419;PMS5003;62855;50.718;-2.460;2023-04-08T07:02:05;8.17;8.80;
74419;PMS5003;62855;50.718;-2.460;2023-04-08T07:05:06;8.17;8.80;
74419;PMS5003;62855;50.718;-2.460;2023-04-08T07:08:06;7.26;7.82;
74419;PMS5003;62855;50.718;-2.460;2023-04-08T07:11:05;7.26;7.82;
74419;PMS5003;62855;50.718;-2.460;2023-04-08T07:14:06;7.26;6.84;
74419;PMS5003;62855;50.718;-2.460;2023-04-08T07:17:06;5.45;5.87;
74419;PMS5003;62855;50.718;-2.460;2023-04-08T07:20:06;7.26;6.84;
74419;PMS5003;62855;50.718;-2.460;2023-04-08T07:23:06;7.26;6.84;
74419;PMS5003;62855;50.718;-2.460;2023-04-08T07:26:06;6.35;6.84;
74419;PMS5003;62855;50.718;-2.460;2023-04-08T07:29:06;5.45;5.87;
74419;PMS5003;62855;50.718;-2.460;2023-04-08T07:32:06;7.26;5.87;
74419;PMS5003;62855;50.718;-2.460;2023-04-08T07:35:06;7.26;5.87;
74419;PMS5003;62855;50.718;-2.460;2023-04-08T07:38:06;5.45;4.89;
74419;PMS5003;62855;50.718;-2.460;2023-04-08T07:41:06;6.35;5.87;
74419;PMS5003;62855;50.718;-2.460;2023-04-08T07:44:06;5.45;5.87;
74419;PMS5003;62855;50.718;-2.460;2023-04-08T07:47:06;6.35;5.87;
74419;PMS5003;62855;50.718;-2.460;2023-04-08T07:50:06;6.35;5.87;
74419;PMS5003;62855;50.718;-2.460;2023-04-08T07:53:05;5.45;4.89;
74419;PMS5003;62855;50.718;-2.460;2023-04-08T07:56:09;6.35;5.87;
74419;PMS5003;62855;50.718;-2.460;2023-04-08T07:59:05;6.35;5.87;
74419;PMS5003;62855;50.718;-2.460;2023-04-08T08:02:05;4.54;4.89;
74419;PMS5003;62855;50.718;-2.460;2023-04-08T08:05:06;4.54;4.89;
74419;PMS5003;62855;50.718;-2.460;2023-04-08T08:08:05;5.45;5.87;
74419;PMS5003;62855;50.718;-2.460;2023-04-08T08:11:05;5.45;5.87;
74419;PMS5003;62855;50.718;-2.460;2023-04-08T08:14:05;4.54;4.89;
74419;PMS5003;62855;50.718;-2.460;2023-04-08T08:17:05;4.54;4.89;
74419;PMS5003;62855;50.718;-2.460;2023-04-08T08:20:06;4.54;4.89;
74419;PMS5003;62855;50.718;-2.460;2023-04-08T08:23:05;4.54;4.89;
74419;PMS5003;62855;50.718;-2.460;2023-04-08T08:26:06;4.54;4.89;
74419;PMS5003;62855;50.718;-2.460;2023-04-08T08:29:06;5.45;5.87;
74419;PMS5003;62855;50.718;-2.460;2023-04-08T08:32:06;5.45;5.87;
74419;PMS5003;62855;50.718;-2.460;2023-04-08T08:35:06;5.45;5.87;
74419;PMS5003;62855;50.718;-2.460;2023-04-08T08:38:06;5.45;5.87;
74419;PMS5003;62855;50.718;-2.460;2023-04-08T08:41:06;5.45;5.87;
74419;PMS5003;62855;50.718;-2.460;2023-04-08T08:44:06;6.35;6.84;
74419;PMS5003;62855;50.718;-2.460;2023-04-08T08:47:06;6.35;6.84;
74419;PMS5003;62855;50.718;-2.460;2023-04-08T08:50:06;6.35;6.84;
74419;PMS5003;62855;50.718;-2.460;2023-04-08T08:53:06;6.35;6.84;
74419;PMS5003;62855;50.718;-2.460;2023-04-08T08:56:07;5.45;5.87;
74419;PMS5003;62855;50.718;-2.460;2023-04-08T08:59:05;5.45;5.87;
74419;PMS5003;62855;50.718;-2.460;2023-04-08T09:02:07;5.45;5.87;
74419;PMS5003;62855;50.718;-2.460;2023-04-08T09:05:06;5.45;4.89;
74419;PMS5003;62855;50.718;-2.460;2023-04-08T09:08:05;5.45;4.89;
74419;PMS5003;62855;50.718;-2.460;2023-04-08T09:11:13;4.54;4.89;
74419;PMS5003;62855;50.718;-2.460;2023-04-08T09:17:05;5.45;4.89;
74419;PMS5003;62855;50.718;-2.460;2023-04-08T09:20:06;5.45;4.89;
74419;PMS5003;62855;50.718;-2.460;2023-04-08T09:23:05;5.45;4.89;
74419;PMS5003;62855;50.718;-2.460;2023-04-08T09:26:06;6.35;5.87;
74419;PMS5003;62855;50.718;-2.460;2023-04-08T09:29:06;6.35;6.84;
74419;PMS5003;62855;50.718;-2.460;2023-04-08T09:32:06;6.35;5.87;
74419;PMS5003;62855;50.718;-2.460;2023-04-08T09:35:06;6.35;5.87;
74419;PMS5003;62855;50.718;-2.460;2023-04-08T09:38:05;5.45;5.87;
74419;PMS5003;62855;50.718;-2.460;2023-04-08T09:41:05;6.35;5.87;
74419;PMS5003;62855;50.718;-2.460;2023-04-08T09:44:06;5.45;5.87;
74419;PMS5003;62855;50.718;-2.460;2023-04-08T09:47:07;5.45;5.87;
74419;PMS5003;62855;50.718;-2.460;2023-04-08T09:50:06;5.45;5.87;
74419;PMS5003;62855;50.718;-2.460;2023-04-08T09:53:07;5.45;5.87;
74419;PMS5003;62855;50.718;-2.460;2023-04-08T09:56:06;5.45;5.87;
74419;PMS5003;62855;50.718;-2.460;2023-04-08T09:59:08;4.54;4.89;
74419;PMS5003;62855;50.718;-2.460;2023-04-08T10:02:06;5.45;5.87;
74419;PMS5003;62855;50.718;-2.460;2023-04-08T10:05:05;5.45;5.87;
74419;PMS5003;62855;50.718;-2.460;2023-04-08T10:08:05;5.45;5.87;
74419;PMS5003;62855;50.718;-2.460;2023-04-08T10:11:06;5.45;5.87;
74419;PMS5003;62855;50.718;-2.460;2023-04-08T10:14:06;4.54;4.89;
74419;PMS5003;62855;50.718;-2.460;2023-04-08T10:17:23;5.45;5.87;
74419;PMS5003;62855;50.718;-2.460;2023-04-08T10:20:06;5.45;5.87;
74419;PMS5003;62855;50.718;-2.460;2023-04-08T10:23:05;5.45;5.87;
74419;PMS5003;62855;50.718;-2.460;2023-04-08T10:26:05;5.45;5.87;
74419;PMS5003;62855;50.718;-2.460;2023-04-08T10:32:06;5.45;5.87;
74419;PMS5003;62855;50.718;-2.460;2023-04-08T10:35:06;6.35;5.87;
74419;PMS5003;62855;50.718;-2.460;2023-04-08T10:38:06;5.45;5.87;
74419;PMS5003;62855;50.718;-2.460;2023-04-08T10:41:05;5.45;5.87;
74419;PMS5003;62855;50.718;-2.460;2023-04-08T10:44:08;5.45;5.87;
74419;PMS5003;62855;50.718;-2.460;2023-04-08T10:47:05;5.45;5.87;
74419;PMS5003;62855;50.718;-2.460;2023-04-08T10:50:11;5.45;5.87;
74419;PMS5003;62855;50.718;-2.460;2023-04-08T10:53:05;5.45;5.87;
74419;PMS5003;62855;50.718;-2.460;2023-04-08T10:56:06;5.45;4.89;
74419;PMS5003;62855;50.718;-2.460;2023-04-08T10:59:05;4.54;3.91;
74419;PMS5003;62855;50.718;-2.460;2023-04-08T11:02:11;5.45;4.89;
74419;PMS5003;62855;50.718;-2.460;2023-04-08T11:05:06;5.45;4.89;
74419;PMS5003;62855;50.718;-2.460;2023-04-08T11:08:06;5.45;4.89;
74419;PMS5003;62855;50.718;-2.460;2023-04-08T11:11:06;5.45;4.89;
74419;PMS5003;62855;50.718;-2.460;2023-04-08T11:14:06;6.35;5.87;
74419;PMS5003;62855;50.718;-2.460;2023-04-08T11:17:06;6.35;6.84;
74419;PMS5003;62855;50.718;-2.460;2023-04-08T11:20:06;6.35;5.87;
74419;PMS5003;62855;50.718;-2.460;2023-04-08T11:23:10;6.35;5.87;
74419;PMS5003;62855;50.718;-2.460;2023-04-08T11:26:06;5.45;5.87;
74419;PMS5003;62855;50.718;-2.460;2023-04-08T11:29:05;6.35;6.84;
74419;PMS5003;62855;50.718;-2.460;2023-04-08T11:32:06;6.35;6.84;
74419;PMS5003;62855;50.718;-2.460;2023-04-08T11:35:05;6.35;6.84;
74419;PMS5003;62855;50.718;-2.460;2023-04-08T11:38:06;5.45;5.87;
74419;PMS5003;62855;50.718;-2.460;2023-04-08T11:41:06;6.35;6.84;
74419;PMS5003;62855;50.718;-2.460;2023-04-08T11:44:06;4.54;4.89;
74419;PMS5003;62855;50.718;-2.460;2023-04-08T11:47:06;3.63;3.91;
74419;PMS5003;62855;50.718;-2.460;2023-04-08T11:50:06;4.54;4.89;
74419;PMS5003;62855;50.718;-2.460;2023-04-08T11:53:14;4.54;4.89;
74419;PMS5003;62855;50.718;-2.460;2023-04-08T11:56:16;3.63;3.91;
74419;PMS5003;62855;50.718;-2.460;2023-04-08T11:59:05;2.72;2.93;
74419;PMS5003;62855;50.718;-2.460;2023-04-08T12:02:05;3.63;3.91;
74419;PMS5003;62855;50.718;-2.460;2023-04-08T12:05:06;2.72;2.93;
74419;PMS5003;62855;50.718;-2.460;2023-04-08T12:08:06;2.72;2.93;
74419;PMS5003;62855;50.718;-2.460;2023-04-08T12:11:06;3.63;3.91;
74419;PMS5003;62855;50.718;-2.460;2023-04-08T12:14:05;4.54;4.89;
74419;PMS5003;62855;50.718;-2.460;2023-04-08T12:17:05;4.54;4.89;
74419;PMS5003;62855;50.718;-2.460;2023-04-08T12:20:06;5.45;5.87;
74419;PMS5003;62855;50.718;-2.460;2023-04-08T12:23:05;9.08;7.82;
74419;PMS5003;62855;50.718;-2.460;2023-04-08T12:26:05;10.89;8.80;
74419;PMS5003;62855;50.718;-2.460;2023-04-08T12:29:05;13.61;11.73;
74419;PMS5003;62855;50.718;-2.460;2023-04-08T12:32:05;11.80;8.80;
74419;PMS5003;62855;50.718;-2.460;2023-04-08T12:35:06;9.08;5.87;
74419;PMS5003;62855;50.718;-2.460;2023-04-08T12:38:06;9.08;6.84;
74419;PMS5003;62855;50.718;-2.460;2023-04-08T12:41:06;7.26;5.87;
74419;PMS5003;62855;50.718;-2.460;2023-04-08T12:44:06;7.26;5.87;
74419;PMS5003;62855;50.718;-2.460;2023-04-08T12:47:06;7.26;5.87;
74419;PMS5003;62855;50.718;-2.460;2023-04-08T12:50:06;7.26;5.87;
74419;PMS5003;62855;50.718;-2.460;2023-04-08T12:53:05;6.35;4.89;
74419;PMS5003;62855;50.718;-2.460;2023-04-08T12:56:05;7.26;5.87;
74419;PMS5003;62855;50.718;-2.460;2023-04-08T12:59:05;5.45;4.89;
74419;PMS5003;62855;50.718;-2.460;2023-04-08T13:02:05;6.35;5.87;
74419;PMS5003;62855;50.718;-2.460;2023-04-08T13:05:06;7.26;6.84;
74419;PMS5003;62855;50.718;-2.460;2023-04-08T13:08:06;6.35;6.84;
74419;PMS5003;62855;50.718;-2.460;2023-04-08T13:11:06;5.45;5.87;
74419;PMS5003;62855;50.718;-2.460;2023-04-08T13:14:05;6.35;5.87;
74419;PMS5003;62855;50.718;-2.460;2023-04-08T13:17:05;6.35;5.87;
74419;PMS5003;62855;50.718;-2.460;2023-04-08T13:20:06;5.45;5.87;
74419;PMS5003;62855;50.718;-2.460;2023-04-08T13:23:06;4.54;4.89;
74419;PMS5003;62855;50.718;-2.460;2023-04-08T13:26:06;4.54;4.89;
74419;PMS5003;62855;50.718;-2.460;2023-04-08T13:29:06;6.35;5.87;
74419;PMS5003;62855;50.718;-2.460;2023-04-08T13:32:05;4.54;4.89;
74419;PMS5003;62855;50.718;-2.460;2023-04-08T13:35:06;4.54;4.89;
74419;PMS5003;62855;50.718;-2.460;2023-04-08T13:38:06;4.54;3.91;
74419;PMS5003;62855;50.718;-2.460;2023-04-08T13:41:06;6.35;5.87;
74419;PMS5003;62855;50.718;-2.460;2023-04-08T13:44:06;4.54;4.89;
74419;PMS5003;62855;50.718;-2.460;2023-04-08T13:47:05;5.45;5.87;
74419;PMS5003;62855;50.718;-2.460;2023-04-08T13:50:06;6.35;6.84;
74419;PMS5003;62855;50.718;-2.460;2023-04-08T13:53:06;5.45;5.87;
74419;PMS5003;62855;50.718;-2.460;2023-04-08T13:56:06;7.26;6.84;
74419;PMS5003;62855;50.718;-2.460;2023-04-08T13:59:05;7.26;6.84;
74419;PMS5003;62855;50.718;-2.460;2023-04-08T14:02:06;7.26;6.84;
74419;PMS5003;62855;50.718;-2.460;2023-04-08T14:05:06;6.35;6.84;
74419;PMS5003;62855;50.718;-2.460;2023-04-08T14:08:06;6.35;6.84;
74419;PMS5003;62855;50.718;-2.460;2023-04-08T14:11:06;6.35;5.87;
74419;PMS5003;62855;50.718;-2.460;2023-04-08T14:14:05;6.35;5.87;
74419;PMS5003;62855;50.718;-2.460;2023-04-08T14:17:05;7.26;6.84;
74419;PMS5003;62855;50.718;-2.460;2023-04-08T14:20:06;7.26;6.84;
74419;PMS5003;62855;50.718;-2.460;2023-04-08T14:23:05;7.26;6.84;
74419;PMS5003;62855;50.718;-2.460;2023-04-08T14:26:05;6.35;6.84;
74419;PMS5003;62855;50.718;-2.460;2023-04-08T14:29:05;6.35;6.84;
74419;PMS5003;62855;50.718;-2.460;2023-04-08T14:32:06;6.35;6.84;
74419;PMS5003;62855;50.718;-2.460;2023-04-08T14:35:06;6.35;6.84;
74419;PMS5003;62855;50.718;-2.460;2023-04-08T14:38:06;5.45;5.87;
74419;PMS5003;62855;50.718;-2.460;2023-04-08T14:41:06;6.35;5.87;
74419;PMS5003;62855;50.718;-2.460;2023-04-08T14:44:06;6.35;5.87;
74419;PMS5003;62855;50.718;-2.460;2023-04-08T14:47:06;5.45;5.87;
74419;PMS5003;62855;50.718;-2.460;2023-04-08T14:50:06;4.54;3.91;
74419;PMS5003;62855;50.718;-2.460;2023-04-08T14:53:06;4.54;4.89;
74419;PMS5003;62855;50.718;-2.460;2023-04-08T14:56:06;5.45;5.87;
74419;PMS5003;62855;50.718;-2.460;2023-04-08T14:59:07;5.45;4.89;
74419;PMS5003;62855;50.718;-2.460;2023-04-08T15:02:06;5.45;5.87;
74419;PMS5003;62855;50.718;-2.460;2023-04-08T15:05:06;4.54;3.91;
74419;PMS5003;62855;50.718;-2.460;2023-04-08T15:08:06;3.63;3.91;
74419;PMS5003;62855;50.718;-2.460;2023-04-08T15:11:06;4.54;4.89;
74419;PMS5003;62855;50.718;-2.460;2023-04-08T15:14:05;3.63;3.91;
74419;PMS5003;62855;50.718;-2.460;2023-04-08T15:17:05;4.54;4.89;
74419;PMS5003;62855;50.718;-2.460;2023-04-08T15:20:06;3.63;3.91;
74419;PMS5003;62855;50.718;-2.460;2023-04-08T15:23:05;3.63;3.91;
74419;PMS5003;62855;50.718;-2.460;2023-04-08T15:26:05;4.54;4.89;
74419;PMS5003;62855;50.718;-2.460;2023-04-08T15:29:06;4.54;4.89;
74419;PMS5003;62855;50.718;-2.460;2023-04-08T15:32:06;4.54;4.89;
74419;PMS5003;62855;50.718;-2.460;2023-04-08T15:35:06;4.54;4.89;
74419;PMS5003;62855;50.718;-2.460;2023-04-08T15:38:05;5.45;5.87;
74419;PMS5003;62855;50.718;-2.460;2023-04-08T15:41:07;6.35;5.87;
74419;PMS5003;62855;50.718;-2.460;2023-04-08T15:44:06;6.35;5.87;
74419;PMS5003;62855;50.718;-2.460;2023-04-08T15:47:06;5.45;5.87;
74419;PMS5003;62855;50.718;-2.460;2023-04-08T15:50:06;5.45;5.87;
74419;PMS5003;62855;50.718;-2.460;2023-04-08T15:53:06;5.45;5.87;
74419;PMS5003;62855;50.718;-2.460;2023-04-08T15:56:05;5.45;5.87;
74419;PMS5003;62855;50.718;-2.460;2023-04-08T15:59:06;5.45;4.89;
74419;PMS5003;62855;50.718;-2.460;2023-04-08T16:02:06;5.45;4.89;
74419;PMS5003;62855;50.718;-2.460;2023-04-08T16:05:05;5.45;4.89;
74419;PMS5003;62855;50.718;-2.460;2023-04-08T16:08:06;5.45;5.87;
74419;PMS5003;62855;50.718;-2.460;2023-04-08T16:11:06;4.54;4.89;
74419;PMS5003;62855;50.718;-2.460;2023-04-08T16:14:06;4.54;4.89;
74419;PMS5003;62855;50.718;-2.460;2023-04-08T16:17:06;4.54;4.89;
74419;PMS5003;62855;50.718;-2.460;2023-04-08T16:20:06;4.54;4.89;
74419;PMS5003;62855;50.718;-2.460;2023-04-08T16:23:06;4.54;4.89;
74419;PMS5003;62855;50.718;-2.460;2023-04-08T16:26:06;4.54;4.89;
74419;PMS5003;62855;50.718;-2.460;2023-04-08T16:29:05;4.54;4.89;
74419;PMS5003;62855;50.718;-2.460;2023-04-08T16:32:05;4.54;4.89;
74419;PMS5003;62855;50.718;-2.460;2023-04-08T16:35:06;4.54;3.91;
74419;PMS5003;62855;50.718;-2.460;2023-04-08T16:38:06;4.54;3.91;
74419;PMS5003;62855;50.718;-2.460;2023-04-08T16:41:06;4.54;4.89;
74419;PMS5003;62855;50.718;-2.460;2023-04-08T16:44:05;5.45;4.89;
74419;PMS5003;62855;50.718;-2.460;2023-04-08T16:47:05;5.45;4.89;
74419;PMS5003;62855;50.718;-2.460;2023-04-08T16:50:07;5.45;5.87;
74419;PMS5003;62855;50.718;-2.460;2023-04-08T16:53:06;7.26;6.84;
74419;PMS5003;62855;50.718;-2.460;2023-04-08T16:56:11;8.17;7.82;
74419;PMS5003;62855;50.718;-2.460;2023-04-08T16:59:06;8.17;7.82;
74419;PMS5003;62855;50.718;-2.460;2023-04-08T17:02:05;10.89;8.80;
74419;PMS5003;62855;50.718;-2.460;2023-04-08T17:05:06;9.08;5.87;
74419;PMS5003;62855;50.718;-2.460;2023-04-08T17:08:05;9.98;6.84;
74419;PMS5003;62855;50.718;-2.460;2023-04-08T17:11:06;9.98;6.84;
74419;PMS5003;62855;50.718;-2.460;2023-04-08T17:14:05;9.98;6.84;
74419;PMS5003;62855;50.718;-2.460;2023-04-08T17:17:05;9.08;6.84;
74419;PMS5003;62855;50.718;-2.460;2023-04-08T17:20:06;7.26;5.87;
74419;PMS5003;62855;50.718;-2.460;2023-04-08T17:23:06;6.35;4.89;
74419;PMS5003;62855;50.718;-2.460;2023-04-08T17:26:06;5.45;4.89;
74419;PMS5003;62855;50.718;-2.460;2023-04-08T17:29:05;4.54;3.91;
74419;PMS5003;62855;50.718;-2.460;2023-04-08T17:32:06;4.54;3.91;
74419;PMS5003;62855;50.718;-2.460;2023-04-08T17:35:06;4.54;4.89;
74419;PMS5003;62855;50.718;-2.460;2023-04-08T17:38:05;2.72;2.93;
74419;PMS5003;62855;50.718;-2.460;2023-04-08T17:41:06;4.54;4.89;
74419;PMS5003;62855;50.718;-2.460;2023-04-08T17:44:06;4.54;4.89;
74419;PMS5003;62855;50.718;-2.460;2023-04-08T17:47:05;6.35;5.87;
74419;PMS5003;62855;50.718;-2.460;2023-04-08T17:50:06;6.35;5.87;
74419;PMS5003;62855;50.718;-2.460;2023-04-08T17:53:05;7.26;6.84;
74419;PMS5003;62855;50.718;-2.460;2023-04-08T17:56:05;8.17;6.84;
74419;PMS5003;62855;50.718;-2.460;2023-04-08T17:59:06;8.17;6.84;
74419;PMS5003;62855;50.718;-2.460;2023-04-08T18:02:06;9.08;7.82;
74419;PMS5003;62855;50.718;-2.460;2023-04-08T18:05:06;9.08;6.84;
74419;PMS5003;62855;50.718;-2.460;2023-04-08T18:08:06;9.08;6.84;
74419;PMS5003;62855;50.718;-2.460;2023-04-08T18:11:06;8.17;6.84;
74419;PMS5003;62855;50.718;-2.460;2023-04-08T18:14:06;8.17;5.87;
74419;PMS5003;62855;50.718;-2.460;2023-04-08T18:17:06;6.35;5.87;
74419;PMS5003;62855;50.718;-2.460;2023-04-08T18:20:06;6.35;4.89;
74419;PMS5003;62855;50.718;-2.460;2023-04-08T18:23:05;5.45;4.89;
74419;PMS5003;62855;50.718;-2.460;2023-04-08T18:26:05;5.45;4.89;
74419;PMS5003;62855;50.718;-2.460;2023-04-08T18:29:05;5.45;5.87;